createdAt,value
2022-09-07T00:02:44.407Z,6.65
2022-09-07T00:12:47.213Z,6.38
2022-09-07T00:22:50.123Z,9.48
2022-09-07T00:32:53.104Z,7.00
2022-09-07T00:42:56.084Z,5.03
2022-09-07T00:53:04.447Z,7.78
2022-09-07T01:03:07.332Z,5.72
2022-09-07T01:13:18.940Z,6.18
2022-09-07T01:24:07.858Z,7.35
2022-09-07T01:34:22.530Z,6.65
2022-09-07T01:44:32.870Z,8.38
2022-09-07T01:54:54.627Z,7.25
2022-09-07T02:05:04.333Z,8.30
2022-09-07T02:15:15.135Z,9.63
2022-09-07T02:25:29.353Z,7.03
2022-09-07T02:35:33.305Z,8.15
2022-09-07T02:45:56.876Z,9.05
2022-09-07T02:56:21.463Z,7.18
2022-09-07T03:07:08.059Z,6.78
2022-09-07T03:17:13.901Z,8.02
2022-09-07T03:27:16.421Z,8.55
2022-09-07T03:37:20.046Z,8.48
2022-09-07T03:47:23.106Z,9.30
2022-09-07T03:57:26.096Z,9.05
2022-09-07T04:07:42.738Z,10.88
2022-09-07T04:17:45.707Z,9.13
2022-09-07T04:27:48.238Z,7.63
2022-09-07T04:37:54.741Z,7.93
2022-09-07T04:47:58.067Z,8.20
2022-09-07T04:58:03.716Z,7.15
2022-09-07T05:08:09.197Z,8.18
2022-09-07T05:18:15.681Z,6.50
2022-09-07T05:28:19.511Z,6.03
2022-09-07T05:38:23.037Z,7.28
2022-09-07T05:48:38.991Z,7.75
2022-09-07T06:09:30.755Z,6.35
2022-09-07T06:19:33.586Z,7.93
2022-09-07T06:29:36.802Z,10.73
2022-09-07T06:39:44.283Z,6.63
2022-09-07T06:49:47.176Z,5.70
2022-09-07T06:59:50.164Z,8.68
2022-09-07T07:09:53.106Z,5.65
2022-09-07T07:19:56.035Z,6.28
2022-09-07T07:29:59.165Z,6.55
2022-09-07T07:40:19.174Z,7.43
2022-09-07T07:50:32.491Z,6.55
2022-09-07T08:00:52.880Z,5.63
2022-09-07T08:10:56.011Z,5.82
2022-09-07T08:21:10.719Z,7.25
2022-09-07T08:31:15.565Z,7.03
2022-09-07T08:41:55.302Z,5.95
2022-09-07T08:52:03.070Z,6.00
2022-09-07T09:02:27.857Z,5.43
2022-09-07T09:12:59.071Z,5.13
2022-09-07T09:23:10.297Z,5.05
2022-09-07T09:33:27.514Z,6.25
2022-09-07T09:43:37.310Z,5.00
2022-09-07T09:54:01.832Z,4.50
2022-09-07T10:04:27.710Z,4.68
2022-09-07T10:14:34.561Z,4.72
2022-09-07T10:24:40.285Z,4.10
2022-09-07T10:34:51.659Z,4.00
2022-09-07T10:45:15.414Z,4.18
2022-09-07T10:55:26.508Z,3.92
2022-09-07T11:05:47.713Z,4.18
2022-09-07T11:15:54.924Z,4.20
2022-09-07T11:26:12.659Z,4.55
2022-09-07T11:36:18.381Z,4.88
2022-09-07T11:46:32.499Z,4.68
2022-09-07T11:56:45.775Z,6.32
2022-09-07T12:07:23.298Z,5.45
2022-09-07T12:17:51.631Z,5.68
2022-09-07T12:27:54.227Z,6.60
2022-09-07T12:38:00.725Z,7.07
2022-09-07T12:48:37.542Z,7.03
2022-09-07T12:59:10.407Z,6.65
2022-09-07T13:09:32.423Z,6.25
2022-09-07T13:19:46.977Z,6.75
2022-09-07T13:30:19.618Z,6.55
2022-09-07T13:40:28.882Z,9.02
2022-09-07T13:50:48.118Z,8.18
2022-09-07T14:01:14.115Z,5.93
2022-09-07T14:11:50.159Z,5.93
2022-09-07T14:22:00.552Z,5.97
2022-09-07T14:32:05.235Z,8.05
2022-09-07T14:42:12.912Z,7.43
2022-09-07T14:52:22.051Z,5.70
2022-09-07T15:02:37.026Z,5.95
2022-09-07T15:12:43.363Z,5.80
2022-09-07T15:22:46.329Z,8.00
2022-09-07T15:32:49.487Z,6.78
2022-09-07T15:43:13.697Z,6.28
2022-09-07T16:03:41.290Z,7.72
2022-09-07T16:13:48.513Z,10.45
2022-09-07T16:23:53.851Z,8.00
2022-09-07T16:33:58.387Z,8.10
2022-09-07T16:44:06.396Z,10.18
2022-09-07T16:54:11.907Z,36.78
2022-09-07T17:04:16.092Z,21.50
2022-09-07T17:14:19.207Z,22.63
2022-09-07T17:24:22.075Z,18.75
2022-09-07T17:34:24.628Z,15.13
2022-09-07T17:44:31.941Z,13.88
2022-09-07T17:54:35.300Z,13.38
2022-09-07T18:04:38.784Z,14.10
2022-09-07T18:14:43.591Z,16.60
2022-09-07T18:24:47.507Z,16.40
2022-09-07T18:34:50.964Z,12.30
2022-09-07T18:55:21.473Z,13.27
2022-09-07T19:15:48.878Z,14.77
2022-09-07T19:25:55.030Z,14.10
2022-09-07T19:36:03.405Z,12.98
2022-09-07T19:46:06.557Z,13.73
2022-09-07T19:56:14.088Z,14.52
2022-09-07T20:06:19.468Z,15.55
2022-09-07T20:16:22.566Z,15.35
2022-09-07T20:26:33.567Z,14.15
2022-09-07T20:36:36.612Z,15.27
2022-09-07T20:46:39.446Z,16.63
2022-09-07T20:56:42.063Z,15.93
2022-09-07T21:06:45.059Z,16.63
2022-09-07T21:16:48.017Z,18.42
2022-09-07T21:26:51.328Z,16.92
2022-09-07T21:36:54.067Z,18.00
2022-09-07T21:46:56.530Z,17.55
2022-09-07T21:56:58.991Z,16.48
2022-09-07T22:07:01.618Z,17.92
2022-09-07T22:17:04.188Z,18.27
2022-09-07T22:27:07.743Z,16.45
2022-09-07T22:37:10.589Z,21.27
2022-09-07T22:47:13.022Z,19.83
2022-09-07T22:57:15.585Z,16.50
2022-09-07T23:07:17.889Z,15.80
2022-09-07T23:17:20.676Z,18.52
2022-09-07T23:27:23.082Z,18.70
2022-09-07T23:37:25.668Z,15.93
2022-09-07T23:47:28.867Z,16.15
2022-09-07T23:57:31.753Z,16.35
